Amis Wisdom II — 3FGI2 — position and weather

sailwx.info

Track history (hours):
 
Tides and Currents Weather Stations Pressure Air Temp Water Temp Dewpoint Dewpoint Depression Visibility Wind Speed Wind Dir Waves Ship Positions

Amis Wisdom II

Last reported at 2015-May-23 16:33 UTC. Time now 2015-May-27 19:50 UTC.
Position N 46°12' W 126°52'.

Length 200 m; draft 12.7 m.

Type: Cargo ship. MMSI: 357086000.

Date/timePositionNaut miles runAvg speedWind from/ knotsBaromVisibWave heightAir tempDewpointWater temp
2015-May-23 16:33N 46°12' W 126°52'1110.7
2015-May-23 15:33N 46°12' W 126°37'1010.4
2015-May-23 14:33N 46°12' W 126°22'1310.8
2015-May-23 13:19N 46°12' W 126°03'2410.8
2015-May-23 11:06N 46°12' W 125°28'610.8
2015-May-23 10:33N 46°12' W 125°19'1210.8
2015-May-23 09:29N 46°11' W 125°03'1010.9
2015-May-23 08:33N 46°11' W 124°48'1111.0
2015-May-23 07:33N 46°11' W 124°32'1111.0
2015-May-23 06:33N 46°10' W 124°16'9 9.2
2015-May-23 05:33N 46°15' W 124°05'1010.0
2015-May-23 04:34N 46°12' W 123°52'1010.1
2015-May-23 03:33N 46°16' W 123°38'9 9.1
2015-May-23 02:33N 46°13' W 123°25'8 7.5
2015-May-23 01:33N 46°09' W 123°17'9 9.3
2015-May-23 00:33N 46°09' W 123°03'9 9.3
2015-May-22 23:33N 46°03' W 122°53'2 1.7
2015-May-22 22:31N 46°02' W 122°52'0 0.0
2015-May-22 21:31N 46°02' W 122°52'0 0.0
2015-May-22 20:31N 46°02' W 122°52'0 0.0
2015-May-22 19:31N 46°02' W 122°52'0 0.0
2015-May-22 18:31N 46°02' W 122°52'0 0.0
2015-May-22 17:25N 46°02' W 122°52'0 0.0
2015-May-22 16:28N 46°02' W 122°52'0 0.0
2015-May-22 15:31N 46°02' W 122°52'0 0.0
2015-May-22 14:31N 46°02' W 122°52'0 0.0
2015-May-22 13:31N 46°02' W 122°52'0 0.0
2015-May-22 12:31N 46°02' W 122°52'0 0.0
2015-May-22 11:31N 46°02' W 122°52'0 0.0
2015-May-22 10:28N 46°02' W 122°52'0 0.0
2015-May-22 09:31N 46°02' W 122°52'0 0.0
2015-May-22 08:31N 46°02' W 122°52'0 0.0
2015-May-22 07:28N 46°02' W 122°52'0 0.0
2015-May-22 06:31N 46°02' W 122°52'0 0.0
2015-May-22 05:31N 46°02' W 122°52'0 0.0
2015-May-22 04:31N 46°02' W 122°52'0 0.0
2015-May-22 03:07N 46°02' W 122°52'0 0.0
2015-May-22 02:31N 46°02' W 122°52'0 0.0
2015-May-22 01:19N 46°02' W 122°52'0 0.0
2015-May-22 00:25N 46°02' W 122°52'0 0.0
2015-May-21 23:31N 46°02' W 122°52'0 0.0
2015-May-21 22:25N 46°02' W 122°52'0 0.0
2015-May-21 21:19N 46°02' W 122°52'0 0.0
2015-May-21 20:31N 46°02' W 122°52'0 0.0
2015-May-21 19:31N 46°02' W 122°52'0 0.0
2015-May-21 18:31N 46°02' W 122°52'0 0.0
2015-May-21 17:16N 46°02' W 122°52'0 0.0
2015-May-21 16:31N 46°02' W 122°52'0 0.0
2015-May-21 15:28N 46°02' W 122°52'0 0.0
2015-May-21 14:28N 46°02' W 122°52'0 0.0
2015-May-21 13:25N 46°02' W 122°52'0 0.0
2015-May-21 12:31N 46°02' W 122°52'0 0.0
2015-May-21 11:31N 46°02' W 122°52'0 0.0
2015-May-21 10:31N 46°02' W 122°52'0 0.0
2015-May-21 09:25N 46°02' W 122°52'0 0.0
2015-May-21 08:31N 46°02' W 122°52'0 0.0
2015-May-21 07:31N 46°02' W 122°52'0 0.0
2015-May-21 06:31N 46°02' W 122°52'0 0.0
2015-May-21 05:31N 46°02' W 122°52'0 0.0
2015-May-21 04:31N 46°02' W 122°52'0 0.0
2015-May-21 03:31N 46°02' W 122°52'0 0.0
2015-May-21 02:16N 46°02' W 122°52'0 0.0
2015-May-21 01:31N 46°02' W 122°52'0 0.0
2015-May-21 00:31N 46°02' W 122°52'0 0.0
2015-May-20 23:31N 46°02' W 122°52'0 0.0
2015-May-20 22:25N 46°02' W 122°52'0 0.0
2015-May-20 21:31N 46°02' W 122°52'0 0.0
2015-May-20 20:31N 46°02' W 122°52'0 0.0
2015-May-20 19:31N 46°02' W 122°52'0 0.0
2015-May-20 18:31N 46°02' W 122°52'0 0.0
2015-May-20 17:28N 46°02' W 122°52'0 0.0
2015-May-20 16:28N 46°02' W 122°52'0 0.0
2015-May-20 15:31N 46°02' W 122°52'0 0.0
2015-May-20 14:31N 46°02' W 122°52'0 0.0
2015-May-20 13:31N 46°02' W 122°52'0 0.0
2015-May-20 12:31N 46°02' W 122°52'0 0.0
2015-May-20 11:28N 46°02' W 122°52'0 0.0
2015-May-20 10:31N 46°02' W 122°52'0 0.0
2015-May-20 09:31N 46°02' W 122°52'0 0.0
2015-May-20 08:31N 46°02' W 122°52'0 0.0
2015-May-20 07:31N 46°02' W 122°52'0 0.0
2015-May-20 06:31N 46°02' W 122°52'0 0.0
2015-May-20 05:19N 46°02' W 122°52'0 0.0
2015-May-20 04:31N 46°02' W 122°52'0 0.0
2015-May-20 03:25N 46°02' W 122°52'0 0.0
2015-May-20 02:31N 46°02' W 122°52'0 0.0
2015-May-20 01:28N 46°02' W 122°52'0 0.0
2015-May-20 00:31N 46°02' W 122°52'0 0.0
2015-May-19 23:28N 46°02' W 122°52'0 0.0
2015-May-19 22:28N 46°02' W 122°52'0 0.0
2015-May-19 21:28N 46°02' W 122°52'0 0.0
2015-May-19 20:31N 46°02' W 122°52'0 0.0
2015-May-19 19:28N 46°02' W 122°52'0 0.0
2015-May-19 18:28N 46°02' W 122°52'0 0.0
2015-May-19 17:28N 46°02' W 122°52'0 0.0
2015-May-19 16:31N 46°02' W 122°52'0 0.0
2015-May-19 15:28N 46°02' W 122°52'0 0.0
2015-May-19 14:31N 46°02' W 122°52'0 0.0
2015-May-19 13:25N 46°02' W 122°52'0 0.0
2015-May-19 12:31N 46°02' W 122°52'0 0.0
2015-May-19 11:25N 46°02' W 122°52'0 0.0
2015-May-19 10:31N 46°02' W 122°52'0 0.0
2015-May-19 09:31N 46°02' W 122°52'0 0.0
2015-May-19 08:31N 46°02' W 122°52'0 0.0
2015-May-19 07:31N 46°02' W 122°52'0 0.0
2015-May-19 06:28N 46°02' W 122°52'0 0.0
2015-May-19 05:32N 46°02' W 122°52'4 3.6
2015-May-19 04:33N 46°05' W 122°54'10 9.7
2015-May-19 03:33N 46°10' W 123°06'10 9.6
2015-May-19 02:33N 46°08' W 123°19'9 8.5
2015-May-19 01:33N 46°15' W 123°27'1010.1
2015-May-19 00:34N 46°15' W 123°41'4 3.9
2015-May-18 23:32N 46°13' W 123°46'0 0.2
2015-May-18 22:32N 46°13' W 123°46'0 0.0
2015-May-18 21:26N 46°13' W 123°46'0 0.0
2015-May-18 20:32N 46°13' W 123°46'0 0.0
2015-May-18 19:32N 46°13' W 123°46'0 0.0
2015-May-18 18:29N 46°13' W 123°46'0 0.2
2015-May-18 17:29N 46°13' W 123°46'0 0.1
2015-May-18 16:32N 46°13' W 123°46'0 0.0
2015-May-18 15:32N 46°13' W 123°46'0 0.0
2015-May-18 14:29N 46°13' W 123°46'0 0.0
2015-May-18 13:29N 46°13' W 123°46'0 0.0
2015-May-18 12:32N 46°13' W 123°46'0 0.0
2015-May-18 11:32N 46°13' W 123°46'0 0.0
2015-May-18 10:32N 46°13' W 123°46'0 0.2
2015-May-18 09:29N 46°13' W 123°46'0 0.1
2015-May-18 08:32N 46°13' W 123°46'0 0.0
2015-May-18 07:32N 46°13' W 123°46'0 0.0
2015-May-18 06:32N 46°13' W 123°46'0 0.0
2015-May-18 05:32N 46°13' W 123°46'0 0.0
2015-May-18 04:32N 46°13' W 123°46'0 0.2
2015-May-18 03:32N 46°13' W 123°46'0 0.0
2015-May-18 02:32N 46°13' W 123°46'0 0.0
2015-May-18 01:32N 46°13' W 123°46'0 0.0
2015-May-18 00:32N 46°13' W 123°46'0 0.0
2015-May-17 23:32N 46°13' W 123°46'0 0.1
2015-May-17 22:32N 46°13' W 123°46'0 0.1
2015-May-17 21:32N 46°13' W 123°46'0 0.0
2015-May-17 20:32N 46°13' W 123°46'0 0.0
2015-May-17 19:32N 46°13' W 123°46'0 0.0
2015-May-17 18:32N 46°13' W 123°46'0 0.0
2015-May-17 17:32N 46°13' W 123°46'0 0.2
2015-May-17 16:32N 46°13' W 123°46'0 0.0
2015-May-17 15:32N 46°13' W 123°46'0 0.0
2015-May-17 14:32N 46°13' W 123°46'0 0.0
2015-May-17 13:32N 46°13' W 123°46'0 0.0
2015-May-17 12:26N 46°13' W 123°46'0 0.0
2015-May-17 11:29N 46°13' W 123°46'0 0.0
2015-May-17 10:32N 46°13' W 123°46'0 0.0
2015-May-17 09:32N 46°13' W 123°46'0 0.2
2015-May-17 08:26N 46°13' W 123°46'0 0.0
2015-May-17 07:32N 46°13' W 123°46'0 0.0
2015-May-17 06:32N 46°13' W 123°46'0 0.0
2015-May-17 05:32N 46°13' W 123°46'0 0.0
2015-May-17 04:29N 46°13' W 123°46'0 0.1
2015-May-17 03:32N 46°13' W 123°46'0 0.2
2015-May-17 02:32N 46°13' W 123°46'0 0.0
2015-May-17 01:32N 46°13' W 123°46'0 0.0
2015-May-17 00:29N 46°13' W 123°46'0 0.0
2015-May-16 23:26N 46°13' W 123°46'0 0.0
2015-May-16 22:32N 46°13' W 123°46'0 0.1
2015-May-16 21:32N 46°13' W 123°46'0 0.1
2015-May-16 20:23N 46°13' W 123°46'0 0.0
2015-May-16 19:32N 46°13' W 123°46'0 0.0
2015-May-16 18:32N 46°13' W 123°46'0 0.0
2015-May-16 17:32N 46°13' W 123°46'0 0.0
2015-May-16 16:29N 46°13' W 123°46'0 0.2
2015-May-16 15:32N 46°13' W 123°46'0 0.0
2015-May-16 14:29N 46°13' W 123°46'0 0.0
2015-May-16 13:32N 46°13' W 123°46'0 0.0
2015-May-16 12:32N 46°13' W 123°46'0 0.0
2015-May-16 11:32N 46°13' W 123°46'0 0.0
2015-May-16 10:32N 46°13' W 123°46'0 0.0
2015-May-16 09:32N 46°13' W 123°46'0 0.2
2015-May-16 08:29N 46°13' W 123°46'0 0.1
2015-May-16 07:32N 46°13' W 123°46'0 0.0
2015-May-16 06:31N 46°13' W 123°46'0 0.0
2015-May-16 05:32N 46°13' W 123°46'0 0.0
2015-May-16 04:32N 46°13' W 123°46'0 0.0
2015-May-16 03:32N 46°13' W 123°46'0 0.0
2015-May-16 02:32N 46°13' W 123°46'0 0.2
2015-May-16 01:32N 46°13' W 123°46'0 0.0
2015-May-16 00:32N 46°13' W 123°46'0 0.0
2015-May-15 23:31N 46°13' W 123°46'0 0.0
2015-May-15 22:32N 46°13' W 123°46'0 0.0
2015-May-15 21:32N 46°13' W 123°46'0 0.2
2015-May-15 20:32N 46°13' W 123°46'0 0.1
2015-May-15 19:32N 46°13' W 123°46'0 0.0
2015-May-15 18:32N 46°13' W 123°46'0 0.2
2015-May-15 17:33N 46°13' W 123°46'7 7.0
2015-May-15 16:34N 46°12' W 123°56'1010.3
2015-May-15 15:34N 46°12' W 124°11'1010.5
2015-May-15 14:34N 46°10' W 124°26'1212.1
2015-May-15 13:34N 46°10' W 124°44'1312.9
2015-May-15 12:34N 46°09' W 125°02'1212.5
2015-May-15 11:33N 46°08' W 125°20'  
Track history (hours):
 
Tides and Currents Weather Stations Pressure Air Temp Water Temp Dewpoint Dewpoint Depression Visibility Wind Speed Wind Dir Waves Ship Positions

Amis Wisdom II

Last reported at 2015-May-23 16:33 UTC. Time now 2015-May-27 19:50 UTC.
Position N 46°12' W 126°52'.

Length 200 m; draft 12.7 m.

Type: Cargo ship. MMSI: 357086000.

Date/timePositionNaut miles runAvg speedWind from/ knotsBaromVisibWave heightAir tempDewpointWater temp
2015-May-23 16:33N 46°12' W 126°52'1110.7
2015-May-23 15:33N 46°12' W 126°37'1010.4
2015-May-23 14:33N 46°12' W 126°22'1310.8
2015-May-23 13:19N 46°12' W 126°03'2410.8
2015-May-23 11:06N 46°12' W 125°28'610.8
2015-May-23 10:33N 46°12' W 125°19'1210.8
2015-May-23 09:29N 46°11' W 125°03'1010.9
2015-May-23 08:33N 46°11' W 124°48'1111.0
2015-May-23 07:33N 46°11' W 124°32'1111.0
2015-May-23 06:33N 46°10' W 124°16'9 9.2
2015-May-23 05:33N 46°15' W 124°05'1010.0
2015-May-23 04:34N 46°12' W 123°52'1010.1
2015-May-23 03:33N 46°16' W 123°38'9 9.1
2015-May-23 02:33N 46°13' W 123°25'8 7.5
2015-May-23 01:33N 46°09' W 123°17'9 9.3
2015-May-23 00:33N 46°09' W 123°03'9 9.3
2015-May-22 23:33N 46°03' W 122°53'2 1.7
2015-May-22 22:31N 46°02' W 122°52'0 0.0
2015-May-22 21:31N 46°02' W 122°52'0 0.0
2015-May-22 20:31N 46°02' W 122°52'0 0.0
2015-May-22 19:31N 46°02' W 122°52'0 0.0
2015-May-22 18:31N 46°02' W 122°52'0 0.0
2015-May-22 17:25N 46°02' W 122°52'0 0.0
2015-May-22 16:28N 46°02' W 122°52'0 0.0
2015-May-22 15:31N 46°02' W 122°52'0 0.0
2015-May-22 14:31N 46°02' W 122°52'0 0.0
2015-May-22 13:31N 46°02' W 122°52'0 0.0
2015-May-22 12:31N 46°02' W 122°52'0 0.0
2015-May-22 11:31N 46°02' W 122°52'0 0.0
2015-May-22 10:28N 46°02' W 122°52'0 0.0
2015-May-22 09:31N 46°02' W 122°52'0 0.0
2015-May-22 08:31N 46°02' W 122°52'0 0.0
2015-May-22 07:28N 46°02' W 122°52'0 0.0
2015-May-22 06:31N 46°02' W 122°52'0 0.0
2015-May-22 05:31N 46°02' W 122°52'0 0.0
2015-May-22 04:31N 46°02' W 122°52'0 0.0
2015-May-22 03:07N 46°02' W 122°52'0 0.0
2015-May-22 02:31N 46°02' W 122°52'0 0.0
2015-May-22 01:19N 46°02' W 122°52'0 0.0
2015-May-22 00:25N 46°02' W 122°52'0 0.0
2015-May-21 23:31N 46°02' W 122°52'0 0.0
2015-May-21 22:25N 46°02' W 122°52'0 0.0
2015-May-21 21:19N 46°02' W 122°52'0 0.0
2015-May-21 20:31N 46°02' W 122°52'0 0.0
2015-May-21 19:31N 46°02' W 122°52'0 0.0
2015-May-21 18:31N 46°02' W 122°52'0 0.0
2015-May-21 17:16N 46°02' W 122°52'0 0.0
2015-May-21 16:31N 46°02' W 122°52'0 0.0
2015-May-21 15:28N 46°02' W 122°52'0 0.0
2015-May-21 14:28N 46°02' W 122°52'0 0.0
2015-May-21 13:25N 46°02' W 122°52'0 0.0
2015-May-21 12:31N 46°02' W 122°52'0 0.0
2015-May-21 11:31N 46°02' W 122°52'0 0.0
2015-May-21 10:31N 46°02' W 122°52'0 0.0
2015-May-21 09:25N 46°02' W 122°52'0 0.0
2015-May-21 08:31N 46°02' W 122°52'0 0.0
2015-May-21 07:31N 46°02' W 122°52'0 0.0
2015-May-21 06:31N 46°02' W 122°52'0 0.0
2015-May-21 05:31N 46°02' W 122°52'0 0.0
2015-May-21 04:31N 46°02' W 122°52'0 0.0
2015-May-21 03:31N 46°02' W 122°52'0 0.0
2015-May-21 02:16N 46°02' W 122°52'0 0.0
2015-May-21 01:31N 46°02' W 122°52'0 0.0
2015-May-21 00:31N 46°02' W 122°52'0 0.0
2015-May-20 23:31N 46°02' W 122°52'0 0.0
2015-May-20 22:25N 46°02' W 122°52'0 0.0
2015-May-20 21:31N 46°02' W 122°52'0 0.0
2015-May-20 20:31N 46°02' W 122°52'0 0.0
2015-May-20 19:31N 46°02' W 122°52'0 0.0
2015-May-20 18:31N 46°02' W 122°52'0 0.0
2015-May-20 17:28N 46°02' W 122°52'0 0.0
2015-May-20 16:28N 46°02' W 122°52'0 0.0
2015-May-20 15:31N 46°02' W 122°52'0 0.0
2015-May-20 14:31N 46°02' W 122°52'0 0.0
2015-May-20 13:31N 46°02' W 122°52'0 0.0
2015-May-20 12:31N 46°02' W 122°52'0 0.0
2015-May-20 11:28N 46°02' W 122°52'0 0.0
2015-May-20 10:31N 46°02' W 122°52'0 0.0
2015-May-20 09:31N 46°02' W 122°52'0 0.0
2015-May-20 08:31N 46°02' W 122°52'0 0.0
2015-May-20 07:31N 46°02' W 122°52'0 0.0
2015-May-20 06:31N 46°02' W 122°52'0 0.0
2015-May-20 05:19N 46°02' W 122°52'0 0.0
2015-May-20 04:31N 46°02' W 122°52'0 0.0
2015-May-20 03:25N 46°02' W 122°52'0 0.0
2015-May-20 02:31N 46°02' W 122°52'0 0.0
2015-May-20 01:28N 46°02' W 122°52'0 0.0
2015-May-20 00:31N 46°02' W 122°52'0 0.0
2015-May-19 23:28N 46°02' W 122°52'0 0.0
2015-May-19 22:28N 46°02' W 122°52'0 0.0
2015-May-19 21:28N 46°02' W 122°52'0 0.0
2015-May-19 20:31N 46°02' W 122°52'0 0.0
2015-May-19 19:28N 46°02' W 122°52'0 0.0
2015-May-19 18:28N 46°02' W 122°52'0 0.0
2015-May-19 17:28N 46°02' W 122°52'0 0.0
2015-May-19 16:31N 46°02' W 122°52'0 0.0
2015-May-19 15:28N 46°02' W 122°52'0 0.0
2015-May-19 14:31N 46°02' W 122°52'0 0.0
2015-May-19 13:25N 46°02' W 122°52'0 0.0
2015-May-19 12:31N 46°02' W 122°52'0 0.0
2015-May-19 11:25N 46°02' W 122°52'0 0.0
2015-May-19 10:31N 46°02' W 122°52'0 0.0
2015-May-19 09:31N 46°02' W 122°52'0 0.0
2015-May-19 08:31N 46°02' W 122°52'0 0.0
2015-May-19 07:31N 46°02' W 122°52'0 0.0
2015-May-19 06:28N 46°02' W 122°52'0 0.0
2015-May-19 05:32N 46°02' W 122°52'4 3.6
2015-May-19 04:33N 46°05' W 122°54'10 9.7
2015-May-19 03:33N 46°10' W 123°06'10 9.6
2015-May-19 02:33N 46°08' W 123°19'9 8.5
2015-May-19 01:33N 46°15' W 123°27'1010.1
2015-May-19 00:34N 46°15' W 123°41'4 3.9
2015-May-18 23:32N 46°13' W 123°46'0 0.2
2015-May-18 22:32N 46°13' W 123°46'0 0.0
2015-May-18 21:26N 46°13' W 123°46'0 0.0
2015-May-18 20:32N 46°13' W 123°46'0 0.0
2015-May-18 19:32N 46°13' W 123°46'0 0.0
2015-May-18 18:29N 46°13' W 123°46'0 0.2
2015-May-18 17:29N 46°13' W 123°46'0 0.1
2015-May-18 16:32N 46°13' W 123°46'0 0.0
2015-May-18 15:32N 46°13' W 123°46'0 0.0
2015-May-18 14:29N 46°13' W 123°46'0 0.0
2015-May-18 13:29N 46°13' W 123°46'0 0.0
2015-May-18 12:32N 46°13' W 123°46'0 0.0
2015-May-18 11:32N 46°13' W 123°46'0 0.0
2015-May-18 10:32N 46°13' W 123°46'0 0.2
2015-May-18 09:29N 46°13' W 123°46'0 0.1
2015-May-18 08:32N 46°13' W 123°46'0 0.0
2015-May-18 07:32N 46°13' W 123°46'0 0.0
2015-May-18 06:32N 46°13' W 123°46'0 0.0
2015-May-18 05:32N 46°13' W 123°46'0 0.0
2015-May-18 04:32N 46°13' W 123°46'0 0.2
2015-May-18 03:32N 46°13' W 123°46'0 0.0
2015-May-18 02:32N 46°13' W 123°46'0 0.0
2015-May-18 01:32N 46°13' W 123°46'0 0.0
2015-May-18 00:32N 46°13' W 123°46'0 0.0
2015-May-17 23:32N 46°13' W 123°46'0 0.1
2015-May-17 22:32N 46°13' W 123°46'0 0.1
2015-May-17 21:32N 46°13' W 123°46'0 0.0
2015-May-17 20:32N 46°13' W 123°46'0 0.0
2015-May-17 19:32N 46°13' W 123°46'0 0.0
2015-May-17 18:32N 46°13' W 123°46'0 0.0
2015-May-17 17:32N 46°13' W 123°46'0 0.2
2015-May-17 16:32N 46°13' W 123°46'0 0.0
2015-May-17 15:32N 46°13' W 123°46'0 0.0
2015-May-17 14:32N 46°13' W 123°46'0 0.0
2015-May-17 13:32N 46°13' W 123°46'0 0.0
2015-May-17 12:26N 46°13' W 123°46'0 0.0
2015-May-17 11:29N 46°13' W 123°46'0 0.0
2015-May-17 10:32N 46°13' W 123°46'0 0.0
2015-May-17 09:32N 46°13' W 123°46'0 0.2
2015-May-17 08:26N 46°13' W 123°46'0 0.0
2015-May-17 07:32N 46°13' W 123°46'0 0.0
2015-May-17 06:32N 46°13' W 123°46'0 0.0
2015-May-17 05:32N 46°13' W 123°46'0 0.0
2015-May-17 04:29N 46°13' W 123°46'0 0.1
2015-May-17 03:32N 46°13' W 123°46'0 0.2
2015-May-17 02:32N 46°13' W 123°46'0 0.0
2015-May-17 01:32N 46°13' W 123°46'0 0.0
2015-May-17 00:29N 46°13' W 123°46'0 0.0
2015-May-16 23:26N 46°13' W 123°46'0 0.0
2015-May-16 22:32N 46°13' W 123°46'0 0.1
2015-May-16 21:32N 46°13' W 123°46'0 0.1
2015-May-16 20:23N 46°13' W 123°46'0 0.0
2015-May-16 19:32N 46°13' W 123°46'0 0.0
2015-May-16 18:32N 46°13' W 123°46'0 0.0
2015-May-16 17:32N 46°13' W 123°46'0 0.0
2015-May-16 16:29N 46°13' W 123°46'0 0.2
2015-May-16 15:32N 46°13' W 123°46'0 0.0
2015-May-16 14:29N 46°13' W 123°46'0 0.0
2015-May-16 13:32N 46°13' W 123°46'0 0.0
2015-May-16 12:32N 46°13' W 123°46'0 0.0
2015-May-16 11:32N 46°13' W 123°46'0 0.0
2015-May-16 10:32N 46°13' W 123°46'0 0.0
2015-May-16 09:32N 46°13' W 123°46'0 0.2
2015-May-16 08:29N 46°13' W 123°46'0 0.1
2015-May-16 07:32N 46°13' W 123°46'0 0.0
2015-May-16 06:31N 46°13' W 123°46'0 0.0
2015-May-16 05:32N 46°13' W 123°46'0 0.0
2015-May-16 04:32N 46°13' W 123°46'0 0.0
2015-May-16 03:32N 46°13' W 123°46'0 0.0
2015-May-16 02:32N 46°13' W 123°46'0 0.2
2015-May-16 01:32N 46°13' W 123°46'0 0.0
2015-May-16 00:32N 46°13' W 123°46'0 0.0
2015-May-15 23:31N 46°13' W 123°46'0 0.0
2015-May-15 22:32N 46°13' W 123°46'0 0.0
2015-May-15 21:32N 46°13' W 123°46'0 0.2
2015-May-15 20:32N 46°13' W 123°46'0 0.1
2015-May-15 19:32N 46°13' W 123°46'0 0.0
2015-May-15 18:32N 46°13' W 123°46'0 0.2
2015-May-15 17:33N 46°13' W 123°46'7 7.0
2015-May-15 16:34N 46°12' W 123°56'1010.3
2015-May-15 15:34N 46°12' W 124°11'1010.5
2015-May-15 14:34N 46°10' W 124°26'1212.1
2015-May-15 13:34N 46°10' W 124°44'1312.9
2015-May-15 12:34N 46°09' W 125°02'1212.5
2015-May-15 11:33N 46°08' W 125°20'  

Dump ship's entire track history